createdAt,value
2024-01-06T00:03:17.040Z,72.36
2024-01-06T00:09:20.028Z,72.62
2024-01-06T00:15:21.627Z,72.74
2024-01-06T00:21:23.222Z,73.40
2024-01-06T00:27:26.188Z,73.49
2024-01-06T00:33:27.897Z,73.14
2024-01-06T00:39:29.533Z,73.10
2024-01-06T00:45:32.463Z,72.49
2024-01-06T00:51:36.091Z,72.71
2024-01-06T00:57:39.002Z,73.50
2024-01-06T01:03:41.991Z,73.28
2024-01-06T01:09:43.694Z,73.44
2024-01-06T01:15:45.455Z,73.18
2024-01-06T01:21:48.501Z,73.71
2024-01-06T01:27:50.113Z,73.28
2024-01-06T01:33:51.864Z,73.71
2024-01-06T01:39:54.881Z,73.85
2024-01-06T01:45:57.086Z,73.88
2024-01-06T01:51:58.764Z,73.63
2024-01-06T01:58:01.731Z,73.92
2024-01-06T02:04:04.560Z,73.82
2024-01-06T02:10:07.855Z,73.65
2024-01-06T02:16:10.797Z,73.34
2024-01-06T02:22:13.664Z,73.70
2024-01-06T02:28:15.274Z,72.90
2024-01-06T02:34:16.961Z,73.44
2024-01-06T02:40:20.232Z,73.83
2024-01-06T02:46:21.786Z,73.58
2024-01-06T02:52:23.336Z,73.52
2024-01-06T02:58:26.311Z,73.76
2024-01-06T03:04:27.971Z,73.73
2024-01-06T03:10:29.549Z,73.35
2024-01-06T03:16:32.441Z,73.30
2024-01-06T03:22:34.140Z,72.97
2024-01-06T03:28:35.696Z,73.39
2024-01-06T03:34:38.681Z,73.88
2024-01-06T03:40:40.307Z,73.61
2024-01-06T03:46:41.964Z,72.96
2024-01-06T03:52:44.966Z,73.87
2024-01-06T03:58:46.657Z,73.19
2024-01-06T04:04:48.426Z,73.49
2024-01-06T04:10:51.405Z,73.67
2024-01-06T04:16:53.136Z,73.42
2024-01-06T04:22:54.896Z,73.14
2024-01-06T04:28:58.053Z,72.93
2024-01-06T04:34:59.683Z,72.51
2024-01-06T04:41:01.677Z,71.89
2024-01-06T04:47:05.075Z,72.16
2024-01-06T04:53:06.648Z,70.98
2024-01-06T04:59:08.235Z,72.11
2024-01-06T05:05:11.177Z,72.02
2024-01-06T05:11:12.780Z,71.30
2024-01-06T05:17:14.369Z,71.36
2024-01-06T05:23:17.206Z,71.85
2024-01-06T05:29:18.776Z,71.00
2024-01-06T05:35:20.358Z,71.22
2024-01-06T05:41:23.252Z,71.81
2024-01-06T05:47:24.849Z,70.91
2024-01-06T05:53:26.409Z,71.03
2024-01-06T05:59:29.315Z,70.37
2024-01-06T06:05:30.901Z,69.95
2024-01-06T06:11:32.445Z,69.73
2024-01-06T06:17:35.493Z,69.24
2024-01-06T06:23:37.136Z,69.25
2024-01-06T06:29:38.802Z,68.32
2024-01-06T06:35:41.723Z,68.22
2024-01-06T06:41:43.251Z,68.76
2024-01-06T06:47:44.934Z,68.92
2024-01-06T06:53:50.501Z,68.68
2024-01-06T06:59:52.764Z,68.28
2024-01-06T07:05:54.417Z,69.01
2024-01-06T07:11:57.420Z,68.88
2024-01-06T07:17:59.093Z,68.78
2024-01-06T07:24:01.188Z,68.33
2024-01-06T07:30:04.988Z,68.33
2024-01-06T07:36:07.321Z,67.68
2024-01-06T07:42:08.872Z,68.08
2024-01-06T07:48:11.922Z,67.29
2024-01-06T07:54:13.653Z,67.72
2024-01-06T08:00:15.676Z,67.21
2024-01-06T08:06:18.844Z,67.13
2024-01-06T08:12:20.513Z,66.92
2024-01-06T08:18:22.232Z,67.63
2024-01-06T08:24:25.445Z,67.72
2024-01-06T08:30:27.257Z,67.33
2024-01-06T08:36:29.009Z,67.52
2024-01-06T08:42:31.945Z,67.13
2024-01-06T08:48:35.855Z,67.53
2024-01-06T08:54:37.818Z,66.99
2024-01-06T09:00:40.802Z,66.92
2024-01-06T09:06:42.417Z,67.68
2024-01-06T09:12:44.079Z,66.54
2024-01-06T09:18:47.149Z,67.11
2024-01-06T09:24:48.780Z,68.01
2024-01-06T09:30:50.552Z,67.70
2024-01-06T09:36:53.655Z,67.10
2024-01-06T09:42:55.523Z,66.86
2024-01-06T09:48:57.636Z,67.19
2024-01-06T09:55:06.404Z,67.48
2024-01-06T10:01:08.168Z,67.08
2024-01-06T10:07:09.948Z,66.51
2024-01-06T10:13:13.001Z,66.94
2024-01-06T10:19:14.732Z,66.29
2024-01-06T10:25:16.483Z,66.75
2024-01-06T10:31:19.977Z,66.78
2024-01-06T10:37:21.669Z,66.12
2024-01-06T10:43:26.459Z,65.97
2024-01-06T10:49:31.044Z,66.68
2024-01-06T10:55:33.674Z,65.82
2024-01-06T11:01:35.879Z,66.58
2024-01-06T11:07:40.899Z,66.45
2024-01-06T11:13:42.495Z,66.27
2024-01-06T11:19:45.402Z,65.83
2024-01-06T11:25:48.374Z,66.39
2024-01-06T11:32:20.839Z,66.25
2024-01-06T11:38:24.008Z,65.36
2024-01-06T11:44:29.270Z,65.35
2024-01-06T11:50:34.132Z,66.05
2024-01-06T11:56:35.671Z,65.92
2024-01-06T12:02:38.573Z,65.61
2024-01-06T12:08:40.110Z,65.33
2024-01-06T12:14:42.551Z,64.80
2024-01-06T12:20:45.562Z,64.75
2024-01-06T12:26:47.695Z,65.26
2024-01-06T12:32:50.998Z,65.00
2024-01-06T12:38:53.951Z,65.09
2024-01-06T12:44:55.488Z,64.65
2024-01-06T12:50:57.054Z,64.85
2024-01-06T12:56:59.948Z,65.39
2024-01-06T13:03:01.641Z,64.71
2024-01-06T13:09:03.531Z,64.83
2024-01-06T13:15:07.991Z,65.00
2024-01-06T13:21:09.617Z,64.59
2024-01-06T13:27:11.163Z,64.80
2024-01-06T13:33:14.146Z,65.31
2024-01-06T13:39:15.773Z,65.44
2024-01-06T13:45:18.223Z,65.31
2024-01-06T13:51:21.324Z,64.65
2024-01-06T13:57:22.927Z,64.94
2024-01-06T14:03:24.663Z,65.01
2024-01-06T14:09:27.606Z,64.36
2024-01-06T14:15:29.242Z,64.50
2024-01-06T14:21:30.846Z,64.13
2024-01-06T14:27:33.993Z,64.36
2024-01-06T14:33:35.686Z,64.38
2024-01-06T14:39:37.278Z,63.83
2024-01-06T14:45:40.164Z,63.85
2024-01-06T14:51:41.770Z,63.77
2024-01-06T14:57:43.351Z,64.22
2024-01-06T15:03:46.364Z,63.48
2024-01-06T15:09:48.039Z,63.17
2024-01-06T15:15:50.744Z,63.72
2024-01-06T15:21:54.775Z,63.67
2024-01-06T15:27:56.353Z,63.87
2024-01-06T15:33:58.110Z,63.49
2024-01-06T15:40:01.553Z,63.58
2024-01-06T15:46:03.485Z,63.43
2024-01-06T15:52:05.687Z,63.74
2024-01-06T15:58:08.622Z,64.14
2024-01-06T16:04:10.370Z,63.48
2024-01-06T16:10:12.057Z,64.14
2024-01-06T16:16:14.946Z,63.76
2024-01-06T16:22:18.277Z,64.79
2024-01-06T16:28:20.049Z,64.47
2024-01-06T16:34:23.062Z,64.41
2024-01-06T16:40:24.807Z,64.18
2024-01-06T16:46:26.385Z,64.66
2024-01-06T16:52:29.510Z,65.17
2024-01-06T16:58:31.154Z,64.72
2024-01-06T17:04:32.848Z,64.66
2024-01-06T17:10:36.078Z,65.40
2024-01-06T17:16:37.751Z,65.32
2024-01-06T17:22:39.442Z,64.93
2024-01-06T17:28:42.410Z,65.12
2024-01-06T17:34:44.314Z,64.79
2024-01-06T17:40:46.089Z,64.55
2024-01-06T17:46:50.049Z,64.65
2024-01-06T17:52:51.647Z,64.99
2024-01-06T17:58:53.558Z,64.75
2024-01-06T18:04:56.705Z,64.48
2024-01-06T18:10:58.360Z,65.50
2024-01-06T18:17:00.442Z,65.20
2024-01-06T18:23:03.488Z,64.81
2024-01-06T18:29:05.029Z,65.16
2024-01-06T18:35:07.150Z,64.63
2024-01-06T18:41:10.023Z,64.61
2024-01-06T18:47:11.566Z,65.13
2024-01-06T18:53:13.170Z,64.63
2024-01-06T18:59:16.045Z,64.34
2024-01-06T19:05:18.067Z,64.83
2024-01-06T19:11:19.687Z,65.07
2024-01-06T19:17:22.713Z,65.51
2024-01-06T19:23:24.594Z,65.07
2024-01-06T19:29:26.174Z,65.32
2024-01-06T19:35:29.090Z,65.51
2024-01-06T19:41:30.695Z,64.28
2024-01-06T19:47:32.291Z,65.53
2024-01-06T19:53:35.583Z,65.57
2024-01-06T19:59:37.112Z,65.93
2024-01-06T20:05:38.728Z,65.85
2024-01-06T20:11:41.625Z,66.25
2024-01-06T20:17:43.189Z,65.06
2024-01-06T20:23:44.806Z,65.60
2024-01-06T20:29:47.688Z,65.23
2024-01-06T20:35:49.261Z,65.59
2024-01-06T20:41:51.010Z,65.09
2024-01-06T20:47:54.143Z,66.02
2024-01-06T20:53:55.741Z,65.74
2024-01-06T20:59:57.389Z,65.45
2024-01-06T21:06:00.335Z,65.31
2024-01-06T21:12:02.295Z,65.20
2024-01-06T21:18:04.197Z,65.20
2024-01-06T21:24:07.986Z,65.11
2024-01-06T21:30:10.127Z,65.18
2024-01-06T21:36:11.740Z,65.05
2024-01-06T21:42:14.655Z,65.75
2024-01-06T21:48:16.289Z,64.99
2024-01-06T21:54:18.002Z,65.07
2024-01-06T22:00:21.063Z,64.86
2024-01-06T22:06:22.714Z,65.01
2024-01-06T22:12:24.406Z,64.99
2024-01-06T22:18:27.415Z,64.83
2024-01-06T22:24:29.158Z,64.10
2024-01-06T22:30:31.217Z,64.58
2024-01-06T22:36:34.183Z,64.58
2024-01-06T22:42:36.046Z,64.51
2024-01-06T22:48:37.827Z,63.75
2024-01-06T22:54:40.991Z,63.62
2024-01-06T23:00:42.639Z,63.63
2024-01-06T23:06:44.318Z,64.10
2024-01-06T23:12:47.408Z,64.86
2024-01-06T23:18:49.162Z,64.76
2024-01-06T23:24:50.748Z,64.08
2024-01-06T23:30:53.902Z,63.92
2024-01-06T23:36:55.551Z,64.52
2024-01-06T23:42:57.127Z,64.31
2024-01-06T23:49:00.308Z,64.90
2024-01-06T23:55:02.117Z,63.88
